Danielson, Connecticut
Current Conditions -  °F | °C
As of 9:52 PM on Thursday 18 Dec 2014 (Local Time) from KIJD Reporting Station
Overcast Overcast  
Wind Chill: 31°   Ceiling: 2900
Heat Index: 37°   Visibility: 10mi
Dew Point: 25°   Wind: 8mph
Humidity: 62%   Direction: 310°NW
Pressure: 29.9"   Gusts: 20mph
Location:  41.8°N, 71.89°W
Report Text: KIJD 190252Z AUTO 31007G17KT 10SM OVC029 03/M04 A2990 RMK AO2 SLP126 T00281039 52001
Loading
Personal Weather Stations






























Interactive Weather Map New forecast layout! Learn more

10-Day Weather Forecast

Advertisements
Track Severe Weather on mobile